Time;durP1;ratioP1;P1;durP2;ratioP2;P2;SDS_P1;SDS_P2;PMS_P1;PMS_P2;Temp;Humidity;BMP_temperature;BMP_pressure;BME280_temperature;BME280_humidity;BME280_pressure;Samples;Min_cycle;Max_cycle;Signal;HPM_P1;HPM_P2
2022/03/27 00:01:15;;;;;;;5.55;4.35;;;;;;;;;;5090242;28;20050;-62
2022/03/27 00:03:41;;;;;;;5.78;4.82;;;;;;;;;;5091540;28;20149;-63
2022/03/27 00:06:07;;;;;;;5.15;4.50;;;;;;;;;;5091865;28;20111;-62
2022/03/27 00:08:33;;;;;;;6.07;4.65;;;;;;;;;;5090208;28;20043;-63
2022/03/27 00:13:43;;;;;;;5.25;4.45;;;;;;;;;;5088643;28;20052;-62
2022/03/27 00:16:09;;;;;;;6.75;4.60;;;;;;;;;;5093345;28;20051;-62
2022/03/27 00:18:36;;;;;;;6.43;4.63;;;;;;;;;;5090328;28;20044;-62
2022/03/27 00:21:03;;;;;;;6.68;4.63;;;8.00;99.90;;;;;;5090264;28;20079;-62
2022/03/27 00:23:29;;;;;;;6.95;4.82;;;;;;;;;;5088428;28;20041;-62
2022/03/27 00:25:55;;;;;;;6.50;4.97;;;;;;;;;;5092626;28;20040;-62
2022/03/27 00:28:21;;;;;;;7.95;4.47;;;;;;;;;;5089337;28;20463;-61
2022/03/27 00:30:47;;;;;;;6.97;5.43;;;;;;;;;;5091447;28;20499;-63
2022/03/27 00:33:14;;;;;;;5.50;4.47;;;;;;;;;;5090336;28;20097;-62
2022/03/27 00:35:40;;;;;;;7.32;5.07;;;;;;;;;;5092707;28;20050;-62
2022/03/27 00:38:07;;;;;;;5.95;4.50;;;7.60;99.90;;;;;;5091126;28;20036;-62
2022/03/27 00:40:34;;;;;;;6.45;4.90;;;;;;;;;;5092076;28;20044;-62
2022/03/27 00:43:00;;;;;;;6.72;4.78;;;;;;;;;;5091105;28;20043;-62
2022/03/27 00:45:26;;;;;;;7.40;4.80;;;;;;;;;;5088409;28;20051;-62
2022/03/27 00:47:52;;;;;;;7.25;5.07;;;;;;;;;;5091920;28;20032;-62
2022/03/27 00:50:18;;;;;;;5.80;4.75;;;;;;;;;;5089075;28;20042;-62
2022/03/27 00:52:44;;;;;;;5.63;4.68;;;;;;;;;;5092423;28;20405;-62
2022/03/27 00:55:10;;;;;;;5.25;4.30;;;;;;;;;;5088492;28;20122;-63
2022/03/27 00:57:36;;;;;;;7.88;4.88;;;;;;;;;;5091229;28;20303;-62
2022/03/27 01:00:02;;;;;;;6.00;4.75;;;;;;;;;;5089223;28;20098;-62
2022/03/27 01:02:28;;;;;;;6.60;4.65;;;;;;;;;;5089550;28;20406;-63
2022/03/27 01:04:55;;;;;;;8.35;5.60;;;;;;;;;;5089860;28;20040;-62
2022/03/27 01:07:21;;;;;;;6.75;4.93;;;;;;;;;;5091924;28;20036;-62
2022/03/27 01:09:48;;;;;;;7.65;5.40;;;;;;;;;;5089896;28;20047;-62
2022/03/27 01:12:23;;;;;;;6.72;5.40;;;;;;;;;;5090551;28;20043;-61
2022/03/27 01:14:51;;;;;;;8.77;5.90;;;6.90;99.90;;;;;;5091768;28;20052;-63
2022/03/27 01:17:19;;;;;;;8.27;6.20;;;;;;;;;;5086642;28;20051;-62
2022/03/27 01:19:50;;;;;;;9.15;6.25;;;6.90;99.90;;;;;;5092077;28;20486;-64
2022/03/27 01:22:17;;;;;;;8.95;6.07;;;7.10;99.90;;;;;;5087558;28;20044;-62
2022/03/27 01:24:43;;;;;;;6.97;5.63;;;;;;;;;;5088426;28;20040;-61
2022/03/27 01:27:10;;;;;;;12.63;7.53;;;;;;;;;;5084990;28;20036;-62
2022/03/27 01:29:36;;;;;;;11.82;7.05;;;;;;;;;;5088988;28;20036;-62
2022/03/27 01:32:03;;;;;;;11.57;7.82;;;;;;;;;;5085327;28;20035;-62
2022/03/27 01:34:30;;;;;;;15.60;9.30;;;;;;;;;;5090247;28;20477;-62
2022/03/27 01:36:56;;;;;;;11.65;8.02;;;;;;;;;;5087411;28;20032;-62
2022/03/27 01:39:22;;;;;;;11.65;8.73;;;;;;;;;;5091389;28;20513;-62
2022/03/27 01:41:48;;;;;;;13.20;7.75;;;;;;;;;;5084798;28;20490;-62
2022/03/27 01:44:15;;;;;;;12.77;8.30;;;;;;;;;;5086811;28;20394;-62
2022/03/27 01:46:42;;;;;;;11.30;8.00;;;;;;;;;;5090968;28;20137;-62
2022/03/27 01:49:10;;;;;;;10.63;7.85;;;7.00;99.90;;;;;;5087164;28;20043;-62
2022/03/27 01:51:37;;;;;;;11.00;8.40;;;7.00;99.90;;;;;;5089135;28;20040;-61
2022/03/27 01:54:03;;;;;;;12.43;8.80;;;;;;;;;;5088223;28;20385;-62
2022/03/27 01:56:30;;;;;;;13.32;9.50;;;;;;;;;;5087928;28;20129;-63
2022/03/27 01:58:56;;;;;;;12.43;8.77;;;;;;;;;;5090407;28;20297;-62
2022/03/27 02:01:22;;;;;;;14.75;9.40;;;;;;;;;;5089756;28;20043;-62
2022/03/27 02:03:49;;;;;;;13.88;9.43;;;;;;;;;;5089502;28;20133;-62
2022/03/27 02:06:15;;;;;;;15.52;8.93;;;;;;;;;;5088948;28;20067;-62
2022/03/27 02:08:42;;;;;;;13.20;9.82;;;;;;;;;;5089990;28;20111;-62
2022/03/27 02:11:09;;;;;;;16.10;9.82;;;;;;;;;;5089420;28;20051;-62
2022/03/27 02:13:35;;;;;;;13.65;9.07;;;;;;;;;;5090421;28;20059;-62
2022/03/27 02:16:03;;;;;;;11.57;8.65;;;;;;;;;;5084444;28;20495;-63
2022/03/27 02:18:29;;;;;;;12.77;8.60;;;;;;;;;;5090464;28;20067;-64
2022/03/27 02:20:56;;;;;;;12.10;8.80;;;;;;;;;;5087395;28;20036;-64
2022/03/27 02:23:22;;;;;;;12.68;8.23;;;;;;;;;;5087631;28;20066;-63
2022/03/27 02:25:48;;;;;;;11.07;8.52;;;;;;;;;;5087065;28;20078;-62
2022/03/27 02:28:14;;;;;;;13.88;8.43;;;;;;;;;;5090373;28;20040;-63
2022/03/27 02:30:41;;;;;;;12.32;8.10;;;;;;;;;;5088147;28;20517;-61
2022/03/27 02:33:07;;;;;;;10.30;7.63;;;;;;;;;;5090647;28;20501;-62
2022/03/27 02:35:34;;;;;;;8.65;7.10;;;;;;;;;;5084194;28;20139;-62
2022/03/27 02:38:00;;;;;;;11.32;6.50;;;;;;;;;;5088526;28;20457;-61
2022/03/27 02:40:26;;;;;;;9.00;6.13;;;;;;;;;;5088245;28;20044;-63
2022/03/27 02:42:53;;;;;;;9.88;5.95;;;;;;;;;;5090057;28;20116;-63
2022/03/27 02:45:19;;;;;;;8.55;5.78;;;;;;;;;;5087392;28;20409;-62
2022/03/27 02:47:45;;;;;;;8.07;5.28;;;;;;;;;;5088237;28;20371;-62
2022/03/27 02:50:11;;;;;;;9.38;5.35;;;;;;;;;;5088935;28;20047;-62
2022/03/27 02:52:37;;;;;;;8.05;5.53;;;;;;;;;;5088800;28;20055;-62
2022/03/27 02:55:03;;;;;;;8.90;5.00;;;;;;;;;;5088820;28;20092;-62
2022/03/27 02:57:29;;;;;;;7.65;4.70;;;;;;;;;;5087843;28;20127;-62
2022/03/27 02:59:55;;;;;;;6.30;4.43;;;;;;;;;;5089407;28;20048;-62
2022/03/27 03:02:21;;;;;;;6.88;4.93;;;;;;;;;;5084336;28;20036;-61
2022/03/27 03:04:47;;;;;;;5.63;4.82;;;;;;;;;;5087819;28;20071;-62
2022/03/27 03:07:16;;;;;;;8.25;4.63;;;;;;;;;;5087538;28;20586;-62
2022/03/27 03:09:42;;;;;;;7.43;5.30;;;;;;;;;;5088265;28;20046;-62
2022/03/27 03:12:09;;;;;;;9.43;5.25;;;;;;;;;;5087068;28;20233;-64
2022/03/27 03:14:35;;;;;;;9.98;4.40;;;;;;;;;;5089845;28;20495;-63
2022/03/27 03:17:04;;;;;;;9.90;4.30;;;;;;;;;;5083121;28;20028;-62
2022/03/27 03:19:30;;;;;;;7.07;4.40;;;;;;;;;;5089707;28;20044;-62
2022/03/27 03:21:56;;;;;;;9.52;5.20;;;;;;;;;;5087725;28;20090;-62
2022/03/27 03:24:25;;;;;;;9.50;5.95;;;;;;;;;;5087193;28;20048;-62
2022/03/27 03:26:51;;;;;;;9.45;5.30;;;;;;;;;;5081267;28;20037;-61
2022/03/27 03:29:17;;;;;;;7.95;5.50;;;;;;;;;;5083916;28;20036;-62
2022/03/27 03:31:43;;;;;;;10.82;5.90;;;;;;;;;;5089976;28;20039;-63
2022/03/27 03:34:09;;;;;;;10.60;5.65;;;;;;;;;;5087241;28;20130;-63
2022/03/27 03:36:36;;;;;;;9.32;5.57;;;;;;;;;;5087876;28;20036;-62
2022/03/27 03:39:02;;;;;;;11.48;6.00;;;;;;;;;;5085970;28;20040;-62
2022/03/27 03:41:28;;;;;;;12.88;6.82;;;;;;;;;;5088558;28;20508;-62
2022/03/27 03:43:54;;;;;;;13.07;6.75;;;;;;;;;;5088445;28;20059;-63
2022/03/27 03:46:20;;;;;;;13.82;7.28;;;;;;;;;;5089638;28;20067;-62
2022/03/27 03:48:46;;;;;;;14.00;7.75;;;;;;;;;;5086875;28;20101;-62
2022/03/27 03:51:12;;;;;;;13.75;7.50;;;;;;;;;;5089387;28;20490;-62
2022/03/27 03:53:38;;;;;;;13.20;8.15;;;;;;;;;;5085104;28;20043;-62
2022/03/27 03:56:05;;;;;;;13.77;7.28;;;;;;;;;;5089644;28;20101;-62
2022/03/27 03:58:31;;;;;;;14.60;8.82;;;;;;;;;;5085674;28;20071;-62
2022/03/27 04:00:57;;;;;;;14.40;8.10;;;;;;;;;;5086764;28;20040;-62
2022/03/27 04:03:24;;;;;;;14.02;7.70;;;;;;;;;;5087556;28;20082;-62
2022/03/27 04:05:50;;;;;;;19.00;8.82;;;;;;;;;;5089375;28;20039;-62
2022/03/27 04:08:16;;;;;;;16.23;8.95;;;;;;;;;;5087723;28;20441;-62
2022/03/27 04:10:42;;;;;;;19.13;9.95;;;;;;;;;;5087948;28;20131;-61
2022/03/27 04:13:12;;;;;;;16.27;9.68;;;;;;;;;;5091746;28;20514;-62
2022/03/27 04:15:38;;;;;;;16.75;9.43;;;;;;;;;;5089063;28;20119;-62
2022/03/27 04:18:05;;;;;;;19.80;9.77;;;;;;;;;;5091176;28;20047;-62
2022/03/27 04:20:31;;;;;;;16.75;9.23;;;;;;;;;;5093623;28;20040;-62
2022/03/27 04:22:57;;;;;;;20.13;9.82;;;;;;;;;;5091576;28;20043;-62
2022/03/27 04:25:23;;;;;;;16.13;9.25;;;;;;;;;;5091278;28;20048;-62
2022/03/27 04:27:49;;;;;;;17.20;8.88;;;;;;;;;;5093089;28;20043;-62
2022/03/27 04:30:15;;;;;;;19.05;9.75;;;;;;;;;;5089377;28;20040;-61
2022/03/27 04:32:41;;;;;;;16.35;8.52;;;;;;;;;;5089629;28;20040;-61
2022/03/27 04:35:08;;;;;;;21.05;8.80;;;;;;;;;;5089376;28;20047;-63
2022/03/27 04:37:43;;;;;;;14.93;8.32;;;;;;;;;;5092865;28;20124;-62
2022/03/27 04:40:13;;;;;;;17.95;8.38;;;;;;;;;;5088421;28;20044;-62
2022/03/27 04:42:39;;;;;;;20.85;9.63;;;;;;;;;;5089279;28;20053;-62
2022/03/27 04:45:06;;;;;;;17.70;8.40;;;;;;;;;;5087347;28;20417;-62
2022/03/27 04:47:32;;;;;;;15.25;8.20;;;;;;;;;;5091206;28;20040;-63
2022/03/27 04:49:58;;;;;;;17.17;8.40;;;;;;;;;;5092318;28;20058;-62
2022/03/27 04:52:24;;;;;;;17.42;8.02;;;;;;;;;;5087749;28;20509;-63
2022/03/27 04:54:50;;;;;;;16.85;8.45;;;;;;;;;;5090113;28;20482;-62
2022/03/27 04:57:16;;;;;;;15.02;7.93;;;;;;;;;;5090620;28;20055;-62
2022/03/27 04:59:42;;;;;;;22.33;8.30;;;;;;;;;;5092267;28;20040;-61
2022/03/27 05:02:08;;;;;;;13.63;7.95;;;;;;;;;;5090591;28;20043;-62
2022/03/27 05:04:34;;;;;;;16.45;7.35;;;;;;;;;;5087128;28;20039;-62
2022/03/27 05:07:00;;;;;;;13.70;7.15;;;;;;;;;;5091871;28;20040;-62
2022/03/27 05:09:26;;;;;;;16.15;6.63;;;;;;;;;;5090427;28;20059;-62
2022/03/27 05:11:55;;;;;;;16.33;7.10;;;;;;;;;;5090140;28;20031;-62
2022/03/27 05:14:21;;;;;;;15.20;6.85;;;;;;;;;;5089217;28;20052;-62
2022/03/27 05:16:48;;;;;;;19.45;7.80;;;;;;;;;;5090376;28;20092;-62
2022/03/27 05:19:14;;;;;;;14.02;7.13;;;;;;;;;;5091513;28;20469;-63
2022/03/27 05:21:40;;;;;;;14.95;7.15;;;;;;;;;;5089418;28;20039;-62
2022/03/27 05:24:08;;;;;;;11.90;7.20;;;;;;;;;;5091895;28;20457;-62
2022/03/27 05:26:35;;;;;;;14.88;6.85;;;;;;;;;;5090026;28;20079;-61
2022/03/27 05:29:03;;;;;;;17.40;7.03;;;;;;;;;;5091560;28;20501;-63
2022/03/27 05:31:29;;;;;;;11.73;5.93;;;;;;;;;;5091490;28;20498;-62
2022/03/27 05:33:55;;;;;;;14.75;7.00;;;;;;;;;;5091695;28;20028;-62
2022/03/27 05:36:21;;;;;;;15.93;7.20;;;;;;;;;;5089700;28;20060;-62
2022/03/27 05:38:47;;;;;;;14.45;6.82;;;;;;;;;;5091553;28;20036;-63
2022/03/27 05:41:13;;;;;;;18.40;7.00;;;;;;;;;;5088114;28;20516;-62
2022/03/27 05:43:40;;;;;;;20.88;7.80;;;;;;;;;;5091266;28;20131;-62
2022/03/27 05:46:06;;;;;;;21.52;7.72;;;;;;;;;;5088659;28;20039;-62
2022/03/27 05:48:32;;;;;;;18.10;8.55;;;;;;;;;;5091676;28;20046;-62
2022/03/27 05:50:58;;;;;;;26.50;9.80;;;;;;;;;;5091708;28;20040;-62
2022/03/27 05:53:24;;;;;;;23.65;8.63;;;;;;;;;;5091129;28;20414;-61
2022/03/27 05:55:50;;;;;;;25.35;9.30;;;;;;;;;;5089943;28;20040;-61
2022/03/27 05:58:17;;;;;;;27.42;9.02;;;;;;;;;;5088750;28;20097;-62
2022/03/27 06:00:43;;;;;;;34.42;10.27;;;;;;;;;;5090871;28;20040;-62
2022/03/27 06:03:09;;;;;;;24.65;9.68;;;;;;;;;;5091001;28;20035;-63
2022/03/27 06:05:36;;;;;;;29.75;9.57;;;;;;;;;;5091348;28;20047;-61
2022/03/27 06:08:02;;;;;;;23.65;8.68;;;;;;;;;;5089990;28;20035;-62
2022/03/27 06:10:31;;;;;;;26.58;9.73;;;;;;;;;;5090756;28;20439;-61
2022/03/27 06:12:57;;;;;;;27.25;9.15;;;;;;;;;;5091207;28;20620;-62
2022/03/27 06:15:24;;;;;;;20.90;8.60;;;;;;;;;;5090336;28;20434;-62
2022/03/27 06:17:50;;;;;;;29.48;8.88;;;;;;;;;;5090383;28;20126;-61
2022/03/27 06:20:18;;;;;;;25.80;9.75;;;;;;;;;;5089955;28;20185;-61
2022/03/27 06:22:44;;;;;;;31.33;9.68;;;;;;;;;;5090282;28;20043;-63
2022/03/27 06:25:19;;;;;;;24.42;8.40;;;;;;;;;;5088232;28;20209;-62
2022/03/27 06:27:46;;;;;;;27.98;8.02;;;;;;;;;;5087784;28;20040;-62
2022/03/27 06:30:15;;;;;;;32.85;8.38;;;;;;;;;;5086706;28;20043;-62
2022/03/27 06:32:42;;;;;;;22.27;7.35;;;;;;;;;;5088896;28;20052;-62
2022/03/27 06:35:08;;;;;;;21.38;8.25;;;;;;;;;;5086631;28;20036;-62
2022/03/27 06:37:35;;;;;;;25.08;7.43;;;;;;;;;;5089444;28;20539;-62
2022/03/27 06:40:02;;;;;;;31.77;7.45;;;6.60;99.90;;;;;;5087757;28;20033;-62
2022/03/27 06:42:28;;;;;;;26.38;8.40;;;;;;;;;;5090106;28;20051;-61
2022/03/27 06:44:55;;;;;;;32.22;8.68;;;;;;;;;;5088211;28;20036;-61
2022/03/27 06:47:22;;;;;;;22.98;7.07;;;;;;;;;;5087252;28;20453;-61
2022/03/27 06:49:49;;;;;;;26.30;8.18;;;;;;;;;;5088093;28;20484;-61
2022/03/27 06:52:16;;;;;;;28.17;7.82;;;;;;;;;;5088063;28;20108;-61
2022/03/27 06:54:43;;;;;;;27.92;8.25;;;;;;;;;;5088202;28;20039;-62
2022/03/27 06:57:09;;;;;;;26.63;8.25;;;;;;;;;;5087687;28;20057;-62
2022/03/27 07:05:05;;;;;;;33.03;9.10;;;;;;;;;;5089080;28;20036;-62
2022/03/27 07:07:31;;;;;;;30.58;7.95;;;;;;;;;;5088001;28;20380;-61
2022/03/27 07:09:57;;;;;;;27.48;7.65;;;;;;;;;;5090184;28;20445;-61
2022/03/27 07:12:24;;;;;;;31.48;8.90;;;;;;;;;;5085665;28;20036;-62
2022/03/27 07:14:51;;;;;;;26.13;7.55;;;;;;;;;;5088463;28;20086;-62
2022/03/27 07:17:18;;;;;;;27.55;8.75;;;;;;;;;;5087156;28;20057;-62
2022/03/27 07:19:44;;;;;;;32.00;8.35;;;;;;;;;;5089613;28;20047;-62
2022/03/27 07:22:10;;;;;;;25.58;8.15;;;;;;;;;;5089856;28;20032;-62
2022/03/27 07:24:37;;;;;;;28.98;8.00;;;;;;;;;;5086864;28;20081;-62
2022/03/27 07:27:03;;;;;;;26.63;9.05;;;;;;;;;;5088167;28;20028;-63
2022/03/27 07:29:34;;;;;;;35.08;8.98;;;;;;;;;;5088525;28;20066;-61
2022/03/27 07:32:01;;;;;;;29.70;8.48;;;;;;;;;;5085377;28;20044;-62
2022/03/27 07:34:27;;;;;;;30.75;8.43;;;;;;;;;;5089189;28;20089;-62
2022/03/27 07:36:53;;;;;;;23.30;8.38;;;;;;;;;;5087825;28;20036;-61
2022/03/27 07:39:21;;;;;;;23.60;7.40;;;;;;;;;;5084240;28;20478;-62
2022/03/27 07:41:47;;;;;;;31.58;8.00;;;;;;;;;;5087358;28;20036;-62
2022/03/27 07:44:13;;;;;;;28.98;7.45;;;;;;;;;;5088598;28;20043;-62
2022/03/27 07:46:39;;;;;;;29.08;7.78;;;;;;;;;;5093562;28;20359;-61
2022/03/27 07:49:06;;;;;;;29.67;7.65;;;;;;;;;;5089836;28;20035;-63
2022/03/27 07:51:34;;;;;;;33.00;8.25;;;;;;;;;;5092340;28;20035;-62
2022/03/27 07:54:00;;;;;;;27.70;8.20;;;;;;;;;;5089595;28;20080;-62
2022/03/27 07:56:26;;;;;;;31.48;8.65;;;;;;;;;;5093325;28;20068;-62
2022/03/27 07:58:52;;;;;;;25.95;7.80;;;;;;;;;;5088759;28;20406;-61
2022/03/27 08:01:19;;;;;;;31.70;7.78;;;;;;;;;;5092222;28;20573;-62
2022/03/27 08:03:45;;;;;;;30.73;7.45;;;;;;;;;;5091932;28;20032;-61
2022/03/27 08:06:11;;;;;;;30.75;7.28;;;;;;;;;;5093291;28;20044;-62
2022/03/27 08:08:38;;;;;;;31.73;7.25;;;;;;;;;;5090518;28;20069;-64
2022/03/27 08:11:04;;;;;;;27.23;6.90;;;;;;;;;;5091254;28;20505;-62
2022/03/27 08:13:30;;;;;;;28.02;6.50;;;;;;;;;;5091559;28;20508;-62
2022/03/27 08:15:56;;;;;;;27.67;6.97;;;;;;;;;;5092858;28;20432;-61
2022/03/27 08:18:22;;;;;;;25.77;6.35;;;;;;;;;;5091855;28;20044;-62
2022/03/27 08:20:48;;;;;;;24.92;6.93;;;;;;;;;;5091796;28;20051;-62
2022/03/27 08:23:14;;;;;;;31.15;7.90;;;;;;;;;;5091698;28;20047;-62
2022/03/27 08:28:25;;;;;;;30.05;7.10;;;;;;;;;;5090916;28;20044;-62
2022/03/27 08:30:51;;;;;;;26.55;6.95;;;;;;;;;;5090355;28;20113;-61
2022/03/27 08:33:17;;;;;;;27.42;6.97;;;9.90;99.90;;;;;;5091027;28;20495;-62
2022/03/27 08:35:44;;;;;;;30.40;7.13;;;;;;;;;;5093504;28;20507;-62
2022/03/27 08:38:18;;;;;;;32.00;6.95;;;;;;;;;;5091652;28;20068;-62
2022/03/27 08:40:45;;;;;;;39.67;9.55;;;10.00;99.90;;;;;;5091313;28;20140;-61
2022/03/27 08:43:20;;;;;;;30.58;7.35;;;;;;;;;;5091356;28;20032;-63
2022/03/27 08:45:46;;;;;;;31.48;7.75;;;;;;;;;;5090669;28;20117;-63
2022/03/27 08:48:12;;;;;;;32.22;6.03;;;;;;;;;;5092919;28;20036;-62
2022/03/27 08:50:44;;;;;;;25.75;6.05;;;;;;;;;;5091477;28;20135;-63
2022/03/27 08:53:13;;;;;;;28.67;6.10;;;;;;;;;;5091647;28;20439;-62
2022/03/27 08:55:56;;;;;;;30.55;5.88;;;10.20;99.90;;;;;;5092422;28;20562;-62
2022/03/27 08:58:25;;;;;;;32.53;6.82;;;;;;;;;;5092550;28;20048;-62
2022/03/27 09:00:51;;;;;;;28.40;5.57;;;;;;;;;;5092354;28;20056;-61
2022/03/27 09:03:20;;;;;;;32.50;5.85;;;10.60;99.90;;;;;;5092311;28;20043;-63
2022/03/27 09:05:46;;;;;;;25.05;6.40;;;;;;;;;;5089873;28;20024;-61
2022/03/27 09:08:12;;;;;;;24.85;8.15;;;;;;;;;;5092528;28;20115;-62
2022/03/27 09:10:40;;;;;;;34.95;6.85;;;11.40;99.90;;;;;;5092631;28;20050;-62
2022/03/27 09:13:11;;;;;;;24.27;5.70;;;11.30;99.90;;;;;;5092005;28;20032;-63
2022/03/27 09:15:37;;;;;;;24.15;5.82;;;;;;;;;;5090973;28;20054;-63
2022/03/27 09:18:08;;;;;;;24.45;5.38;;;;;;;;;;5091815;28;20482;-61
2022/03/27 09:20:43;;;;;;;25.77;5.45;;;11.90;99.90;;;;;;5092405;28;20404;-63
2022/03/27 09:23:12;;;;;;;16.40;4.40;;;;;;;;;;5089921;28;20402;-62
2022/03/27 09:25:53;;;;;;;27.85;4.65;;;;;;;;;;5086516;28;20036;-62
2022/03/27 09:28:39;;;;;;;24.60;5.57;;;;;;;;;;5091853;28;20050;-64
2022/03/27 09:31:07;;;;;;;25.65;5.90;;;;;;;;;;5089972;28;20080;-62
2022/03/27 09:33:34;;;;;;;23.92;5.30;;;;;;;;;;5089746;28;20058;-62
2022/03/27 09:36:11;;;;;;;22.98;5.70;;;;;;;;;;5089353;28;20032;-62
2022/03/27 09:38:37;;;;;;;23.52;4.85;;;;;;;;;;5105248;28;20044;-62
2022/03/27 09:41:03;;;;;;;25.13;4.68;;;;;;;;;;5090279;28;20047;-62
2022/03/27 09:43:29;;;;;;;25.48;5.20;;;;;;;;;;5089634;28;20043;-63
2022/03/27 09:45:57;;;;;;;27.30;6.03;;;;;;;;;;5089698;28;20446;-63
2022/03/27 09:48:23;;;;;;;30.08;5.65;;;;;;;;;;5087246;28;20032;-63
2022/03/27 09:50:51;;;;;;;24.85;5.38;;;;;;;;;;5088770;28;20135;-62
2022/03/27 09:53:28;;;;;;;24.25;5.68;;;;;;;;;;5091309;28;20039;-62
2022/03/27 09:55:54;;;;;;;21.80;4.80;;;;;;;;;;5089872;28;20512;-62
2022/03/27 09:58:52;;;;;;;27.40;5.47;;;14.40;99.90;;;;;;5089869;28;20036;-63
2022/03/27 10:01:20;;;;;;;15.10;4.15;;;14.60;99.90;;;;;;5009033;28;20157;-62
2022/03/27 10:04:01;;;;;;;23.63;4.78;;;14.80;99.90;;;;;;4992951;28;20092;-62
2022/03/27 10:06:27;;;;;;;21.10;4.50;;;;;;;;;;5005737;28;20575;-64
2022/03/27 10:08:53;;;;;;;23.63;5.15;;;;;;;;;;4989501;28;20130;-62
2022/03/27 10:11:22;;;;;;;22.48;4.70;;;15.40;99.90;;;;;;5008830;28;20460;-63
2022/03/27 10:13:52;;;;;;;27.38;5.40;;;;;;;;;;5006670;28;20083;-63
2022/03/27 10:16:30;;;;;;;20.40;4.30;;;15.70;99.90;;;;;;5008714;28;20045;-63
2022/03/27 10:18:59;;;;;;;27.50;5.72;;;15.80;99.90;;;;;;4989841;28;20049;-62
2022/03/27 10:21:26;;;;;;;23.05;4.43;;;;;;;;;;5009070;28;20042;-62
2022/03/27 10:24:05;;;;;;;20.98;5.05;;;16.30;99.90;;;;;;5004192;28;20050;-62
2022/03/27 10:26:32;;;;;;;23.08;4.88;;;;;;;;;;5005656;28;20038;-63
2022/03/27 10:28:59;;;;;;;20.63;4.30;;;;;;;;;;5002396;28;20030;-62
2022/03/27 10:31:26;;;;;;;22.73;5.15;;;;;;;;;;5002506;28;20104;-63
2022/03/27 10:33:54;;;;;;;21.90;4.63;;;;;;;;;;5006955;28;20524;-64
2022/03/27 10:36:34;;;;;;;20.67;4.60;;;16.80;99.90;;;;;;5027429;28;20070;-62
2022/03/27 10:39:32;;;;;;;19.35;4.88;;;;;;;;;;5088832;28;20032;-63
2022/03/27 10:42:02;;;;;;;21.20;4.30;;;17.00;99.90;;;;;;5007044;28;20049;-63
2022/03/27 10:44:39;;;;;;;24.27;4.88;;;17.50;99.90;;;;;;5007280;28;20100;-63
2022/03/27 10:47:12;;;;;;;19.85;4.38;;;;;;;;;;4991752;28;20045;-64
2022/03/27 10:49:38;;;;;;;18.17;3.92;;;;;;;;;;5005329;28;20419;-63
2022/03/27 10:52:05;;;;;;;18.75;3.97;;;;;;;;;;5003922;28;20472;-63
2022/03/27 10:54:31;;;;;;;19.42;3.95;;;;;;;;;;5007244;28;20382;-63
2022/03/27 10:56:58;;;;;;;16.73;4.18;;;;;;;;;;5007907;28;20132;-63
2022/03/27 10:59:27;;;;;;;16.73;3.50;;;;;;;;;;5004848;28;20085;-62
2022/03/27 11:01:58;;;;;;;16.02;4.03;;;;;;;;;;5003208;28;20033;-63
2022/03/27 11:04:41;;;;;;;18.88;4.55;;;19.00;99.90;;;;;;5005581;28;20065;-62
2022/03/27 11:07:16;;;;;;;18.33;4.20;;;19.10;99.90;;;;;;5006795;28;20112;-63
2022/03/27 11:09:45;;;;;;;19.42;3.75;;;;;;;;;;5007040;28;20042;-63
2022/03/27 11:12:24;;;;;;;15.60;4.75;;;;;;;;;;5007922;28;20183;-63
2022/03/27 11:14:53;;;;;;;18.50;4.75;;;;;;;;;;5007290;28;20541;-63
2022/03/27 11:17:31;;;;;;;15.32;3.90;;;;;;;;;;5038739;28;20055;-63
2022/03/27 11:19:58;;;;;;;13.27;3.70;;;20.00;99.90;;;;;;5086821;28;20040;-63
2022/03/27 11:22:53;;;;;;;17.60;4.13;;;;;;;;;;5090358;28;20063;-63
2022/03/27 11:25:28;;;;;;;18.35;4.38;;;;;;;;;;5072176;28;20043;-63
2022/03/27 11:27:57;;;;;;;16.88;3.55;;;;;;;;;;5089348;28;20029;-62
2022/03/27 11:30:24;;;;;;;19.55;4.10;;;;;;;;;;5086199;28;20586;-62
2022/03/27 11:33:10;;;;;;;15.95;3.95;;;;;;;;;;5088727;28;20103;-63
2022/03/27 11:35:36;;;;;;;19.38;4.40;;;;;;;;;;5070234;28;20098;-63
2022/03/27 11:38:23;;;;;;;16.98;3.47;;;21.10;97.30;;;;;;5084481;28;20079;-63
2022/03/27 11:40:49;;;;;;;13.65;3.50;;;;;;;;;;5090317;28;20115;-63
2022/03/27 11:43:34;;;;;;;14.63;3.75;;;20.70;95.40;;;;;;5087722;28;20032;-64
2022/03/27 11:46:02;;;;;;;15.48;3.58;;;21.20;95.40;;;;;;5086232;28;20036;-63
2022/03/27 11:48:28;;;;;;;16.85;3.92;;;;;;;;;;5086256;28;20798;-64
2022/03/27 11:50:55;;;;;;;13.95;3.40;;;;;;;;;;5090164;28;20042;-62
2022/03/27 11:53:34;;;;;;;11.88;3.10;;;;;;;;;;5087526;28;20512;-62
2022/03/27 11:56:11;;;;;;;14.60;3.85;;;21.50;94.70;;;;;;5087731;28;20046;-62
2022/03/27 11:58:38;;;;;;;14.05;3.58;;;;;;;;;;5088726;28;20040;-63
2022/03/27 12:01:08;;;;;;;17.90;3.40;;;21.80;93.40;;;;;;5083802;28;20047;-63
2022/03/27 12:03:35;;;;;;;14.02;3.53;;;;;;;;;;5088138;28;20383;-64
2022/03/27 12:06:09;;;;;;;14.98;4.25;;;;;;;;;;5088400;28;20043;-62
2022/03/27 12:08:37;;;;;;;10.82;2.92;;;21.60;93.30;;;;;;5086816;28;20039;-63
2022/03/27 12:11:06;;;;;;;15.45;3.53;;;21.70;92.90;;;;;;5089575;28;20517;-63
2022/03/27 12:13:43;;;;;;;12.50;3.30;;;;;;;;;;5087602;28;20495;-63
2022/03/27 12:16:15;;;;;;;16.05;3.90;;;;;;;;;;5088633;28;20048;-64
2022/03/27 12:18:44;;;;;;;;;;;;;;;;;;5083949;28;20036;-64
2022/03/27 12:21:12;;;;;;;15.73;3.58;;;;;;;;;;5087073;28;20401;-64
2022/03/27 12:23:39;;;;;;;17.30;4.50;;;;;;;;;;5087798;28;20035;-63
2022/03/27 12:29:39;;;;;;;18.88;4.10;;;;;;;;;;5088537;28;20028;-63
2022/03/27 12:31:50;;;;;;;14.07;4.55;;;;;;;;;;5089254;28;20040;-62
2022/03/27 12:34:16;;;;;;;18.23;4.20;;;;;;;;;;5091118;28;20076;-64
2022/03/27 12:37:09;;;;;;;16.80;4.03;;;;;;;;;;5091608;28;20103;-63
2022/03/27 12:39:39;;;;;;;14.45;4.30;;;;;;;;;;5091233;28;20036;-63
2022/03/27 12:42:06;;;;;;;17.17;4.10;;;;;;;;;;5090932;28;20124;-63
2022/03/27 12:44:49;;;;;;;16.70;4.50;;;;;;;;;;5091428;28;20397;-63
2022/03/27 12:47:15;;;;;;;15.20;3.85;;;;;;;;;;5090538;28;20036;-64
2022/03/27 12:49:48;;;;;;;13.35;3.80;;;;;;;;;;5090349;28;20513;-63
2022/03/27 12:52:14;;;;;;;16.55;4.85;;;;;;;;;;5092911;28;20040;-64
2022/03/27 12:55:05;;;;;;;15.65;4.03;;;;;;;;;;5087542;28;20035;-62
2022/03/27 12:57:52;;;;;;;9.75;3.22;;;;;;;;;;5092560;28;20184;-63
2022/03/27 13:00:19;;;;;;;15.35;4.32;;;22.20;91.90;;;;;;5091844;28;20120;-64
2022/03/27 13:02:45;;;;;;;14.73;4.13;;;;;;;;;;5092711;28;20043;-63
2022/03/27 13:05:11;;;;;;;15.85;3.80;;;24.00;94.20;;;;;;5091806;28;20039;-63
2022/03/27 13:07:57;;;;;;;16.15;4.03;;;;;;;;;;5088974;28;20198;-63
2022/03/27 13:10:23;;;;;;;15.40;4.50;;;;;;;;;;5086332;28;20044;-63
2022/03/27 13:13:05;;;;;;;15.80;3.72;;;;;;;;;;5090532;28;20047;-63
2022/03/27 13:15:43;;;;;;;15.90;4.78;;;;;;;;;;5092216;28;20406;-64
2022/03/27 13:18:12;;;;;;;17.20;3.90;;;25.30;90.00;;;;;;5087736;28;20093;-62
2022/03/27 13:20:37;;;;;;;18.15;4.22;;;25.00;92.00;;;;;;5090248;28;20035;-63
2022/03/27 13:23:04;;;;;;;16.08;4.07;;;24.80;89.80;;;;;;5092274;28;20028;-64
2022/03/27 13:25:30;;;;;;;17.23;4.00;;;25.10;83.10;;;;;;5087928;28;20028;-64
2022/03/27 13:27:56;;;;;;;13.68;3.63;;;;;;;;;;5090858;28;20047;-63
2022/03/27 13:30:23;;;;;;;12.90;3.47;;;24.10;91.50;;;;;;5089888;28;20195;-64
2022/03/27 13:32:49;;;;;;;15.00;4.03;;;23.80;91.10;;;;;;5091979;28;20075;-63
2022/03/27 13:35:17;;;;;;;14.55;3.45;;;23.90;82.90;;;;;;5088401;28;20063;-63
2022/03/27 13:37:43;;;;;;;15.52;3.75;;;;;;;;;;5090299;28;20039;-63
2022/03/27 13:40:09;;;;;;;13.40;3.97;;;23.40;91.20;;;;;;5090950;28;20547;-63
2022/03/27 13:45:21;;;;;;;13.25;3.85;;;;;;;;;;5092287;28;20044;-63
2022/03/27 13:47:47;;;;;;;13.18;3.65;;;;;;;;;;5090325;28;20039;-63
2022/03/27 13:50:13;;;;;;;13.88;4.07;;;24.90;90.20;;;;;;5091893;28;20534;-63
2022/03/27 13:52:39;;;;;;;16.25;3.25;;;;;;;;;;5086475;28;20035;-63
2022/03/27 13:55:06;;;;;;;15.30;3.17;;;;;;;;;;5088706;28;20043;-64
2022/03/27 13:57:32;;;;;;;16.60;3.78;;;24.40;79.60;;;;;;5086043;28;20043;-63
2022/03/27 13:59:57;;;;;;;11.82;3.22;;;25.20;90.80;;;;;;5091362;28;20051;-64
2022/03/27 14:02:23;;;;;;;17.17;3.88;;;;;;;;;;5093223;28;20040;-63
2022/03/27 14:04:51;;;;;;;12.35;3.83;;;;;;;;;;5091184;28;20402;-63
2022/03/27 14:07:17;;;;;;;14.05;4.00;;;;;;;;;;5089883;28;20047;-63
2022/03/27 14:09:44;;;;;;;13.15;3.20;;;;;;;;;;5089941;28;20173;-63
2022/03/27 14:12:10;;;;;;;13.02;3.17;;;;;;;;;;5087417;28;20044;-63
2022/03/27 14:14:37;;;;;;;14.13;3.88;;;;;;;;;;5088975;28;20059;-63
2022/03/27 14:17:03;;;;;;;12.70;3.60;;;31.00;84.40;;;;;;5089689;28;20509;-63
2022/03/27 14:19:28;;;;;;;11.15;3.42;;;31.30;83.20;;;;;;5089504;28;20037;-63
2022/03/27 14:21:56;;;;;;;14.93;3.75;;;;;;;;;;5090484;28;20119;-64
2022/03/27 14:24:22;;;;;;;11.38;2.92;;;31.20;77.70;;;;;;5088498;28;20559;-63
2022/03/27 14:26:48;;;;;;;13.60;3.70;;;30.80;70.40;;;;;;5090963;28;20044;-64
2022/03/27 14:29:14;;;;;;;12.88;2.95;;;;;;;;;;5088668;28;20073;-63
2022/03/27 14:31:40;;;;;;;14.15;4.00;;;29.40;80.40;;;;;;5090767;28;20044;-64
2022/03/27 14:34:06;;;;;;;10.60;3.00;;;;;;;;;;5086552;28;20047;-63
2022/03/27 14:36:33;;;;;;;14.27;3.63;;;;;;;;;;5090154;28;20051;-63